Tiempo atmosférico en la estación meteorológica de Pontevedra, Pontevedra (108 m.)



Fecha
DESCASC
Temp. máxima en grados centígrados (hora)
DESCASC
Temp. mínima en grados centígrados (hora)
DESCASC
Temp. media en grados centígrados
DESCASC
Racha de viento máxima en m/sg (hora)
DESCASC
Velocidad máxima media en intervalos de 10 minutos(hora)
DESCASC
Precipitaciones diarias en mm
DESCASC
Precipitaciones de 00:00 a 06:00 en mm
DESCASC
Precipitaciones de 06:00 a 12:00 en mm
DESCASC
Precipitaciones de 12:00 a 18:00 en mm
DESCASC
Precipitaciones de 18:00 a 24:00 en mm
DESCASC
06-12-2018 16.2 (14:40) 10.8 (09:20) 13.5 4.17 (16:10) 2.5 (16:10) 0 0 0 0 0
05-12-2018 15.5 (11:40) 9.1 (02:30) 12.3 8.06 (11:50) 3.89 (11:40) 11.6 0 0 3.8 7.8
04-12-2018 15.8 (13:50) 9.9 (23:59) 12.8 4.72 (15:30) 3.06 (15:30) 0.2 0.2 0 0 0
03-12-2018 14.9 (13:40) 13.8 (00:00) 14.3 8.89 (07:00) 4.44 (07:40) 36.6 4.4 6.4 20.6 5.2
02-12-2018 14.9 (16:20) 13 (00:00) 13.9 11.67 (10:10) 5.28 (08:50) 3 0 0 0.2 2.8
01-12-2018 14.8 (15:00) 10.6 (00:00) 12.7 11.11 (16:10) 5.83 (16:00) 0 0 0 0 0
30-11-2018 15.1 (13:40) 8.4 (00:00) 11.8 7.22 (14:10) 4.17 (14:40) 1.2 0 1.2 0 0
29-11-2018 15.2 (15:30) 10.5 (00:00) 12.8 15.83 (00:50) 7.5 (05:40) 6.8 4.2 2.4 0 0.2
28-11-2018 14.8 (14:40) 12 (00:00) 13.4 15.83 (22:40) 8.33 (23:00) 0 0 0 0 0
27-11-2018 13.3 (15:50) 7.2 (00:00) 10.3 11.11 (23:20) 5 (23:00) 0 0 0 0 0
25-11-2018 11.2 (14:30) 4.4 (00:00) 7.8 18.61 (21:40) 9.17 (21:50) 8.4 0 0 2.2 6.2
24-11-2018 13 (20:20) 8.9 (00:00) 10.9 18.33 (18:10) 7.5 (18:20) 21.8 3.8 3.6 10.2 4.2
23-11-2018 12.8 (15:40) 7.4 (00:00) 10.1 11.39 (12:00) 3.61 (04:30) 33.4 8.6 13 7 4.8
22-11-2018 11.7 (12:30) 8.5 (00:00) 10.1 10 (14:40) 5.28 (15:20) 10.4 0.4 3.4 3.4 3.2
21-11-2018 12.5 (12:10) 8.4 (00:00) 10.4 10.28 (15:10) 5.28 (21:50) 20 0.2 1 12.8 6
20-11-2018 12.7 (13:30) 8.4 (00:00) 10.5 4.44 (23:40) 3.06 (23:40) 3.4 1.8 0.6 1 0
19-11-2018 16.7 (13:40) 11.3 (00:00) 14 3.33 (14:30) 2.22 (14:50) 6.8 5.6 1 0 0.2
18-11-2018 19.3 (12:50) 12.6 (00:00) 15.9 9.44 (06:30) 5.56 (06:30) 0 0 0 0 0
17-11-2018 21 (15:40) 12.3 (00:00) 16.7 8.33 (19:10) 4.44 (19:30) 0 0 0 0 0
16-11-2018 20.6 (16:30) 11.5 (00:00) 16.1 4.72 (16:00) 2.78 (01:30) 0 0 0 0 0
15-11-2018 21 (16:20) 11.4 (00:00) 16.2 4.72 (09:10) 3.33 (21:20) 0 0 0 0 0
14-11-2018 19.9 (16:20) 7.9 (00:00) 13.9 5 (00:50) 3.61 (00:20) 0 0 0 0 0
13-11-2018 16.2 (16:20) 5.2 (00:00) 10.7 6.39 (05:30) 3.61 (02:30) 0 0 0 0 0
12-11-2018 15.3 (16:10) 7.3 (00:00) 11.3 5.28 (07:10) 3.61 (07:10) 0 0 0 0 0
11-11-2018 15.1 (04:50) 9.5 (00:00) 12.3 20.28 (04:30) 9.72 (05:00) 7.8 5.4 0.2 0.2 2
10-11-2018 16.4 (15:30) 12.8 (00:00) 14.6 17.22 (11:30) 7.78 (00:10) 14.2 6 8 0 0.2

Gráficas

Temp. máximas Temp. mínimas Temp. medias Precipitaciones Rachas de viento máximas Velocidades máximas media en intervalos de 10 minutos

Datos horarios

Fecha y hora oficial Temperatura (ºC) Velocidad del viento (km/h) Dirección del viento Racha (km/h) Dirección de racha Precipitación (mm) Presión (hPa) Tendencia (hPa) Humedad (%)
2018-12-09 23:00:00 9.5 0 Calma 7 Norte 0 1017.8 0.1 95
2018-12-09 22:00:00 9.9 2 Norte 6 Norte 0 1017.7 0.3 96
2018-12-09 21:00:00 10.7 4 Nordeste 9 Nordeste 0 1017.5 0.4 95
2018-12-09 20:00:00 11.9 5 Nordeste 10 Nordeste 0 1017.7 0.7 93
2018-12-09 19:00:00 12.8 7 Nordeste 9 Nordeste 0 1017.4 0.5 89
2018-12-09 18:00:00 14.3 2 Sudeste 8 Oeste 0 1017.1 0.1 85
2018-12-09 17:00:00 15.6 7 Oeste 16 Noroeste 0 1017 -0.6 78
2018-12-09 16:00:00 15.5 9 Oeste 16 Noroeste 0 1016.9 -1.2 80
2018-12-09 15:00:00 15.5 6 Sudoeste 15 Oeste 0 1017 -2 80
2018-12-09 14:00:00 15 11 Oeste 19 Oeste 0 1017.6 -1.5 82
2018-12-09 13:00:00 15 5 Oeste 7 Oeste 0 1018.1 -0.8 81
2018-12-09 12:00:00 14.1 3 Sur 7 Sudoeste 0 1019 0.6 89
2018-12-09 11:00:00 12 0 Calma 5 Sudoeste 0 1019.1 0.7 99
2018-12-09 10:00:00 11.6 0 Calma 5 Nordeste 0 1018.9 0.9 99
2018-12-09 09:00:00 11.1 3 Nordeste 4 Nordeste 0 1018.4 0.3 98
2018-12-09 08:00:00 10.9 2 Sudeste 4 Nordeste 0 1018.4 0.1 99
2018-12-09 07:00:00 10.7 0 Calma 6 Norte 0 1018 -0.4 99
2018-12-09 06:00:00 10.8 2 Sur 4 Noroeste 0 1018.1 0.2 98
2018-12-09 05:00:00 10.7 0 Calma 4 Nordeste 0.2 1018.3 0.4 97
2018-12-09 04:00:00 11 0 Calma 6 Nordeste 0 1018.4 -0.2 94
2018-12-09 03:00:00 11 5 Nordeste 7 Nordeste 0 1017.9 -0.7 92
2018-12-09 02:00:00 11 3 Noroeste 6 Noroeste 0 1017.9 -0.6 93
2018-12-09 01:00:00 11.1 3 Sudeste 9 Nordeste 0 1018.6 0.2 93
2018-12-09 00:00:00 11 7 Nordeste 10 Este 0 1018.6 0.2 91
2018-12-08 23:00:00 11.1 0 Calma 3 Sudeste 0 1018.5 0.2 93
2018-12-08 22:00:00 11.2 3 Oeste 6 Nordeste 0 1018.4 0.3 92
2018-12-08 21:00:00 11.2 3 Norte 5 Norte 0 1018.4 0.6 90
2018-12-08 20:00:00 11.1 2 Sudeste 9 Sudeste 0 1018.3 0.7 90
2018-12-08 19:00:00 11.4 7 Sudeste 12 Sudeste 0 1018.1 0.6 87
2018-12-08 18:00:00 12 4 Sudeste 7 Sur 0 1017.8 0 86
2018-12-08 17:00:00 12.8 2 Sur 15 Oeste 0 1017.6 -0.7 82
2018-12-08 16:00:00 13.4 10 Sudoeste 19 Sudoeste 0 1017.5 -0.9 74
2018-12-08 15:00:00 14.6 8 Sur 17 Sur 0 1017.8 -1 75
2018-12-08 14:00:00 13.5 5 Sur 9 Sur 0 1018.3 -0.5 77
2018-12-08 13:00:00 12 4 Norte 7 Norte 0 1018.4 -0.1 85
2018-12-08 12:00:00 10.1 2 Noroeste 10 Nordeste 0 1018.8 0.6 92
2018-12-08 11:00:00 8.1 5 Nordeste 16 Nordeste 0 1018.8 0.7 94
2018-12-08 10:00:00 6.8 4 Sur 21 Nordeste 0 1018.5 0.8 95
2018-12-08 09:00:00 6.8 4 Nordeste 16 Nordeste 0 1018.2 0.9 96
2018-12-08 08:00:00 6.7 5 Este 21 Nordeste 0 1018.1 0.9 95
2018-12-08 07:00:00 6.2 10 Nordeste 18 Nordeste 0 1017.7 -0.3 97
2018-12-08 06:00:00 6.5 10 Nordeste 18 Nordeste 0 1017.3 -0.5 97
2018-12-08 05:00:00 6.7 7 Nordeste 11 Este 0 1017.2 -0.3 96
2018-12-08 04:00:00 7.2 12 Nordeste 18 Nordeste 0 1018 0.4 95
2018-12-08 03:00:00 7.3 9 Nordeste 17 Nordeste 0 1017.8 0.3 96
2018-12-08 02:00:00 7.5 9 Nordeste 16 Nordeste 0 1017.5 -0.1 97
2018-12-08 01:00:00 7.8 10 Este 15 Este 0 1017.6 -0.1 97
2018-12-08 00:00:00 8.7 9 Nordeste 15 Este 0 1017.5 0.3 98
2018-12-07 23:00:00 9.5 8 Este 12 Este 0 1017.6 0.7 97
2018-12-07 22:00:00 10.4 5 Nordeste 7 Nordeste 0 1017.7 1.3 95
2018-12-07 21:00:00 11 4 Nordeste 7 Noroeste 0 1017.2 1.3 96
2018-12-07 20:00:00 11.6 0 Calma 10 Oeste 0 1016.9 1.6 97
2018-12-07 19:00:00 12.1 3 Sur 10 Noroeste 9.2 1016.4 1.2 99
2018-12-07 18:00:00 12.8 4 Oeste 12 Sudoeste 0 1015.9 1 100
2018-12-07 17:00:00 13 4 Sur 24 Sudoeste 0 1015.3 0.3 100
2018-12-07 16:00:00 12.7 12 Sudoeste 21 Sudoeste 0 1015.2 -0.2 100
2018-12-07 15:00:00 12.8 6 Sudoeste 14 Sudoeste 0 1014.9 -0.7 100
2018-12-07 14:00:00 12.7 7 Sur 20 Sur 0 1015 -0.3 99
2018-12-07 13:00:00 12.4 12 Sur 26 Sur 0 1015.4 0.1 99
2018-12-07 12:00:00 12.4 15 Sur 26 Sur 0 1015.6 0.2 97
2018-12-07 11:00:00 11.8 4 Sur 13 Sur 0 1015.3 -0.1 97
2018-12-07 10:00:00 11.4 5 Noroeste 9 Sudeste 0 1015.3 0.3 98
2018-12-07 09:00:00 11 4 Norte 6 Norte 0 1015.4 -0.5 98
2018-12-07 08:00:00 11.1 3 Este 10 Este 0 1015.4 0.9 100
2018-12-07 07:00:00 10.8 3 Norte 13 Sur 0 1015 0 98
2018-12-07 06:00:00 11.1 6 Sur 16 Sur 0 1015.9 0.6 95
2018-12-07 05:00:00 11.7 4 Sudoeste 18 Sudeste 0 1014.5 -0.8 90
2018-12-07 04:00:00 11.7 6 Sur 17 Sudeste 0 1015 -0.9 90
2018-12-07 03:00:00 11.7 4 Sur 16 Sudeste 0 1015.3 -0.6 91
2018-12-07 02:00:00 11.6 10 Sudeste 19 Sudeste 0 1015.3 -0.9 89
2018-12-07 01:00:00 11.4 2 Sur 12 Sur 0 1015.9 -0.4 94
2018-12-07 00:00:00 11.8 9 Sudeste 14 Sudeste 0 1015.9 -0.5 94
2018-12-06 23:00:00 11.8 4 Sur 9 Sur 0 1016.2 -0.2 95
2018-12-06 22:00:00 11.9 4 Sur 8 Sudeste 0 1016.3 0.1 97
2018-12-06 21:00:00 12 3 Sudeste 7 Sudeste 0 1016.4 0.6 97
2018-12-06 20:00:00 11.9 0 Calma 6 Sudoeste 0 1016.4 0.4 97
2018-12-06 19:00:00 11.9 3 Sur 6 Sudoeste 0 1016.2 0.4 94
2018-12-06 18:00:00 13.4 5 Sudoeste 10 Sudoeste 0 1015.8 -0.5 89
2018-12-06 17:00:00 14.6 7 Sudoeste 15 Sudoeste 0 1016 -0.8 86
2018-12-06 16:00:00 15.1 8 Sudoeste 13 Sudoeste 0 1015.8 -1.5 82
2018-12-06 15:00:00 15.6 3 Sudoeste 11 Sudoeste 0 1016.3 -1.4 74
2018-12-06 14:00:00 15.4 5 Sudoeste 10 Sudoeste 0 1016.8 -0.7 76
2018-12-06 13:00:00 15.3 6 Sur 12 Sur 0 1017.3 0.4 83
2018-12-06 12:00:00 13.2 4 Sur 8 Sudeste 0 1017.7 1.4 99
2018-12-06 11:00:00 12 2 Sudoeste 6 Este 0 1017.5 1.6 100
2018-12-06 10:00:00 11.1 3 Este 5 Este 0 1016.9 1.3 100
2018-12-06 09:00:00 11.1 0 Calma 6 Sudeste 0 1016.3 0.9 98
2018-12-06 08:00:00 11.6 3 Sudeste 5 Sudeste 0 1015.9 0.5 98
2018-12-06 07:00:00 11.8 0 Calma 4 Sudeste 0 1015.6 0 100
2018-12-06 06:00:00 12.2 4 Sudeste 6 Sudoeste 0 1015.4 0.6 99
2018-12-06 05:00:00 13 4 Sur 11 Sur 0 1015.4 0.7 99
2018-12-06 04:00:00 13.3 3 Sudoeste 8 Sudoeste 0 1015.6 0.9 99
2018-12-06 03:00:00 13.4 4 Sur 9 Sur 0 1014.8 0.1 99
2018-12-06 02:00:00 13.6 4 Sur 13 Sur 0 1014.7 0.2 99
2018-12-06 01:00:00 13.6 3 Sur 11 Sur 0 1014.7 0.6 99
2018-12-06 00:00:00 13.6 5 Sur 13 Sur 0 1014.7 0.8 99
2018-12-05 23:00:00 13.4 5 Sur 11 Oeste 0 1014.5 1.2 99
2018-12-05 22:00:00 13.5 4 Sur 11 Sur 0.4 1014.1 1.4 99
2018-12-05 21:00:00 13.3 0 Calma 8 Sur 0.4 1013.9 1.8 99
2018-12-05 20:00:00 13.3 2 Sur 17 Sur 1.2 1013.3 1.6 98
2018-12-05 19:00:00 13.4 8 Sur 20 Sur 5.8 1012.7 1.5 98
2018-12-05 18:00:00 13.4 9 Sur 20 Sudeste 3.2 1012.1 0.7 95
2018-12-05 17:00:00 14 9 Sur 23 Sur 0.6 1011.7 0.5 91
2018-12-05 16:00:00 14.6 14 Sur 23 Sur 0 1011.2 0.1 83
2018-12-05 15:00:00 14.5 11 Sur 18 Sur 0 1011.4 -0.1 85
2018-12-05 14:00:00 14.8 9 Sur 21 Sur 0 1011.2 0.1 79
2018-12-05 13:00:00 15 11 Sur 22 Sur 0 1011.1 0.3 77
2018-12-05 12:00:00 14.9 7 Sudoeste 29 Sur 0 1011.5 1.4 77
2018-12-05 11:00:00 12.9 4 Norte 16 Noroeste 0 1011.1 1.4 88
2018-12-05 10:00:00 12.4 3 Noroeste 10 Nordeste 0 1010.8 1.7 87
2018-12-05 09:00:00 12 5 Norte 10 Este 0 1010.1 1.2 88
2018-12-05 08:00:00 11.4 5 Nordeste 11 Norte 0 1009.7 0.9 92
2018-12-05 07:00:00 11 5 Nordeste 13 Norte 0 1009.1 0.4 91
2018-12-05 06:00:00 10.1 6 Norte 11 Nordeste 0 1008.9 0.7 92
2018-12-05 05:00:00 10.1 5 Nordeste 9 Nordeste 0 1008.8 0.5 92
2018-12-05 04:00:00 9.9 6 Nordeste 11 Norte 0 1008.7 -0.2 92
2018-12-05 03:00:00 10.1 4 Norte 17 Sur 0 1008.2 -0.6 92
2018-12-05 02:00:00 10 5 Norte 11 Nordeste 0 1008.3 -0.1 92
2018-12-05 01:00:00 9.7 4 Norte 13 Sur 0 1008.9 0.9 94
2018-12-05 00:00:00 9.9 6 Sudeste 14 Sudeste 0 1008.8 1.4 94
2018-12-04 23:00:00 10.8 5 Sudeste 13 Sur 0 1008.4 1.5 89
2018-12-04 22:00:00 10.9 6 Sudeste 11 Sudeste 0 1008 1.3 95
2018-12-04 21:00:00 10.8 0 Calma 3 Sur 0 1007.4 0.7 96
2018-12-04 20:00:00 11.6 0 Calma 6 Sudeste 0 1006.9 0.1 94
2018-12-04 19:00:00 12.6 4 Sudeste 7 Sudoeste 0 1006.7 -0.2 94
2018-12-04 18:00:00 13.2 0 Calma 6 Sudoeste 0 1006.7 0.1 93
2018-12-04 17:00:00 14.2 4 Sudoeste 13 Sudoeste 0 1006.8 0 90
2018-12-04 16:00:00 14.5 5 Sudoeste 17 Sudoeste 0 1006.9 -0.3 90
2018-12-04 15:00:00 14.8 9 Sudoeste 15 Sudoeste 0 1006.6 -1 86
2018-12-04 14:00:00 15.6 7 Sudoeste 11 Sudoeste 0 1006.8 -0.7 84
2018-12-04 13:00:00 14.9 3 Norte 7 Nordeste 0 1007.2 -0.2 88
2018-12-04 12:00:00 14.2 3 Norte 6 Norte 0 1007.6 0 92
2018-12-04 11:00:00 13.3 3 Nordeste 17 Sudeste 0 1007.5 -0.3 97
2018-12-04 10:00:00 12.8 6 Este 14 Este 0 1007.4 0 97
2018-12-04 09:00:00 13 4 Sudeste 12 Este 0 1007.6 0.2 98
2018-12-04 08:00:00 13 4 Sur 8 Sur 0 1007.8 0.5 100
2018-12-04 07:00:00 13.1 4 Sudeste 7 Sudeste 0 1007.4 -0.3 100
2018-12-04 06:00:00 13.1 3 Sudeste 6 Sudeste 0 1007.4 -0.3 99
2018-12-04 05:00:00 13.3 0 Calma 5 Sur 0 1007.3 -0.8 99
2018-12-04 04:00:00 13.4 4 Sur 5 Sur 0 1007.7 -0.8 99
2018-12-04 03:00:00 13.6 3 Sudoeste 4 Sudoeste 0 1007.7 -0.6 99
2018-12-04 02:00:00 13.8 0 Calma 5 Norte 0 1008.1 -0.4 99
2018-12-04 01:00:00 13.8 4 Norte 6 Nordeste 0.2 1008.5 -0.1 99
2018-12-04 00:00:00 13.8 3 Norte 7 Nordeste 0 1008.3 -0.5 99
2018-12-03 23:00:00 13.8 3 Nordeste 4 Nordeste 0 1008.5 0.1 99
2018-12-03 22:00:00 13.9 0 Calma 9 Sudeste 0.2 1008.6 0.4 98
2018-12-03 21:00:00 14 5 Sur 14 Sur 0.4 1008.8 1 99
2018-12-03 20:00:00 14.2 3 Sudeste 10 Sudeste 1.6 1008.4 0.6 99
2018-12-03 19:00:00 14.6 2 Sudoeste 8 Sudoeste 3 1008.2 0.6 100
2018-12-03 18:00:00 14.5 3 Sur 11 Sudoeste 3 1007.8 0.1 100
2018-12-03 17:00:00 14.5 4 Sudoeste 11 Sudoeste 4.2 1007.8 -0.1 100
2018-12-03 16:00:00 14.7 6 Sudoeste 11 Sur 3.8 1007.6 -0.6 99
2018-12-03 15:00:00 14.8 5 Sur 19 Sudoeste 2.2 1007.7 -0.6 99
2018-12-03 14:00:00 14.9 7 Sur 16 Sur 4 1007.9 -0.1 99
2018-12-03 13:00:00 14.8 8 Sur 17 Sur 3.4 1008.2 1 99
2018-12-03 12:00:00 14.7 8 Sur 21 Sur 3.2 1008.3 2 98
2018-12-03 11:00:00 14.5 3 Oeste 19 Sur 1.2 1008 2.2 98
2018-12-03 10:00:00 14.4 7 Sudoeste 30 Sur 1 1007.2 1.7 98
2018-12-03 09:00:00 14.2 15 Sur 30 Sur 0.8 1006.3 0.7 97
2018-12-03 08:00:00 14.2 13 Sur 31 Sur 0.2 1005.8 -0.4 97
2018-12-03 07:00:00 14.2 15 Sur 32 Sur 0 1005.5 -1.1 97
2018-12-03 06:00:00 14 11 Sur 24 Sur 0.2 1005.6 -1.3 97
2018-12-03 05:00:00 13.9 8 Sur 27 Sur 0 1006.2 -1.1 97
2018-12-03 04:00:00 13.9 10 Sur 24 Sur 0 1006.6 -0.8 97
2018-12-03 03:00:00 13.9 9 Sur 27 Sur 1.4 1006.9 -0.5 97
2018-12-03 02:00:00 13.9 8 Sur 19 Sur 2.4 1007.3 -0.3 97
2018-12-03 01:00:00 14 9 Sur 30 Sudeste 0.4 1007.4 -0.1 96
2018-12-03 00:00:00 14 13 Sur 30 Sudeste 1 1007.4 0.1 97
2018-12-02 23:00:00 14 12 Sur 34 Sur 1.6 1007.6 0.7 97
2018-12-02 22:00:00 13.9 14 Sur 34 Sur 0 1007.5 0.6 96
2018-12-02 21:00:00 13.8 11 Sur 26 Sur 0.2 1007.3 0.5 97
2018-12-02 20:00:00 13.7 9 Sur 22 Sur 0 1006.9 0.2 97
2018-12-02 19:00:00 13.8 8 Sudoeste 26 Sur 0 1006.9 0.5 96
2018-12-02 18:00:00 14 14 Sur 26 Sur 0.2 1006.8 0.1 94
2018-12-02 17:00:00 14.3 14 Sur 33 Sur 0 1006.7 -0.7 91
2018-12-02 16:00:00 14.8 16 Sur 35 Sur 0 1006.4 -1.7 84
2018-12-02 15:00:00 14.5 16 Sur 36 Sur 0 1006.7 -1.6 85
2018-12-02 14:00:00 14.4 13 Sur 24 Sur 0 1007.4 0.1 85
2018-12-02 13:00:00 14.4 8 Sur 25 Sur 0 1008.1 0.6 86
2018-12-02 12:00:00 14.4 7 Sudoeste 33 Sur 0 1008.3 1.2 84
2018-12-02 11:00:00 14.1 18 Sur 42 Sudeste 0 1007.3 0.2 84
2018-12-02 10:00:00 13.4 17 Sudeste 37 Sudeste 0 1007.5 0.2 89
2018-12-02 09:00:00 13.3 17 Sudeste 41 Sur 0 1007.1 -0.5 88
2018-12-02 08:00:00 13.5 15 Sudeste 34 Sur 0 1007.1 -0.1 87
2018-12-02 07:00:00 13.9 16 Sur 33 Sur 0 1007.3 -0.4 83
2018-12-02 06:00:00 13.5 14 Sur 30 Sudeste 0 1007.6 -0.1 87
2018-12-02 05:00:00 13.6 13 Sur 33 Sur 0 1007.2 -0.4 86
2018-12-02 04:00:00 13.8 15 Sur 30 Sur 0 1007.7 0.1 84
2018-12-02 03:00:00 13.7 14 Sur 32 Sudeste 0 1007.7 -0.4 84
2018-12-02 02:00:00 13.7 12 Sur 34 Sur 0 1007.6 -0.3 84
2018-12-02 01:00:00 13.9 18 Sur 40 Sur 0 1007.6 0 83
2018-12-02 00:00:00 13.9 17 Sur 35 Sur 0 1008.1 0.2 83
2018-12-01 23:00:00 13.8 15 Sur 35 Sur 0 1007.9 -0.4 83
2018-12-01 22:00:00 13.8 17 Sur 34 Sur 0 1007.6 0 83
2018-12-01 21:00:00 13.8 16 Sur 32 Sudeste 0 1007.9 0.3 83
2018-12-01 20:00:00 13.9 11 Sur 39 Sur 0 1008.3 0.8 83
2018-12-01 19:00:00 14 15 Sur 35 Sur 0 1007.6 0.5 82
2018-12-01 18:00:00 14.1 16 Sur 32 Sur 0 1007.6 -0.2 82
2018-12-01 17:00:00 14.3 13 Sur 40 Sur 0 1007.5 -0.7 82
2018-12-01 16:00:00 14.4 21 Sur 35 Sur 0 1007.1 -1.4 79
2018-12-01 15:00:00 14.8 17 Sur 33 Sur 0 1007.8 -1.5 80
2018-12-01 14:00:00 14.1 14 Sur 31 Sur 0 1008.2 -1 83
2018-12-01 13:00:00 14.1 15 Sur 30 Sur 0 1008.5 0 83
2018-12-01 12:00:00 13.4 14 Sur 31 Sur 0 1009.3 0.9 84
2018-12-01 11:00:00 13.1 11 Sur 22 Sudeste 0 1009.2 1.2 86
2018-12-01 10:00:00 12.5 11 Sur 25 Sur 0 1008.5 0.6 86
2018-12-01 09:00:00 12.2 12 Sur 27 Sur 0 1008.4 0.5 86
2018-12-01 08:00:00 12.1 13 Sur 28 Sur 0 1008 0 86
2018-12-01 07:00:00 11.9 14 Sur 30 Sudeste 0 1007.9 -0.4 86
2018-12-01 06:00:00 11.7 11 Sur 30 Sur 0 1007.9 -0.6 86
2018-12-01 05:00:00 11.3 14 Sur 26 Sur 0 1008 -1.1 88
2018-12-01 04:00:00 11.3 10 Sudeste 24 Sur 0 1008.3 -1.3 87
2018-12-01 03:00:00 11.4 10 Sur 23 Sudeste 0 1008.5 -1.1 86
2018-12-01 02:00:00 11.4 10 Sur 22 Sur 0 1009.1 -0.3 86
2018-12-01 01:00:00 11 6 Sur 16 Sur 0 1009.6 -0.3 88
2018-12-01 00:00:00 10.6 8 Sudeste 16 Sur 0 1009.6 0.1 90
2018-11-30 23:00:00 10.9 6 Sur 19 Sudeste 0 1009.4 0 88
2018-11-30 22:00:00 10.8 8 Sudeste 15 Sudeste 0 1009.9 0 89
2018-11-30 21:00:00 10.5 5 Sudeste 14 Sudeste 0 1009.5 0.6 88
2018-11-30 20:00:00 10.8 7 Sudeste 16 Sudeste 0 1009.4 0.7 88
2018-11-30 19:00:00 11.2 6 Sudeste 10 Sur 0 1009.9 1.1 86
2018-11-30 18:00:00 12.3 8 Sur 19 Sudoeste 0 1008.9 0.1 81
2018-11-30 17:00:00 14 6 Sudoeste 14 Sudoeste 0 1008.7 -0.5 75
2018-11-30 16:00:00 13.4 7 Sur 19 Sudoeste 0 1008.8 -0.5 77
2018-11-30 15:00:00 14.3 7 Sur 26 Sudoeste 0 1008.8 -0.7 77
2018-11-30 14:00:00 14.7 10 Sur 22 Sudoeste 0 1009.2 0.2 77
2018-11-30 13:00:00 14 6 Sur 11 Sudoeste 0 1009.3 0.7 81
2018-11-30 12:00:00 11.6 2 Sudeste 7 Oeste 0 1009.5 1.4 93
2018-11-30 11:00:00 10.5 2 Noroeste 5 Sudeste 0.2 1009 1.6 98
2018-11-30 10:00:00 9.1 0 Calma 9 Noroeste 1 1008.6 1.8 99
2018-11-30 09:00:00 8.7 5 Norte 8 Nordeste 0 1008.1 1.6 97
2018-11-30 08:00:00 8.7 2 Nordeste 5 Norte 0 1007.4 1.3 97
2018-11-30 07:00:00 9.1 3 Sudeste 8 Nordeste 0 1006.8 1 98
2018-11-30 06:00:00 9.2 0 Calma 8 Sudeste 0 1006.5 1.1 96
2018-11-30 05:00:00 9.6 4 Nordeste 9 Sudeste 0 1006.1 0.5 94
2018-11-30 04:00:00 9.7 5 Sudeste 7 Sudeste 0 1005.8 0.4 93
2018-11-30 03:00:00 9.7 2 Sudeste 8 Sudeste 0 1005.4 0.2 92
2018-11-30 02:00:00 10.2 3 Norte 13 Oeste 0 1005.6 0.4 97
2018-11-30 01:00:00 10.7 6 Sudeste 15 Sudeste 0 1005.4 0.5 97
2018-11-30 00:00:00 10.6 0 Calma 5 Sur 0 1005.2 0.7 97
2018-11-29 23:00:00 10.6 0 Calma 7 Sur 0 1005.2 1.4 97
2018-11-29 22:00:00 10.9 3 Sur 9 Sur 0 1004.9 1.9 94
2018-11-29 21:00:00 11.4 5 Sudeste 9 Sudeste 0 1004.5 2 94
2018-11-29 20:00:00 11.5 5 Sudeste 9 Este 0.2 1003.8 1.8 92
2018-11-29 19:00:00 12.3 3 Sur 13 Sur 0 1003 1.5 87
2018-11-29 18:00:00 13.5 5 Sur 17 Sudoeste 0 1002.5 0.9 82
2018-11-29 17:00:00 15.1 10 Sur 29 Sudoeste 0 1002 0.4 77
2018-11-29 16:00:00 14.6 10 Sudoeste 24 Sudoeste 0 1001.5 -0.3 80
2018-11-29 15:00:00 14.8 8 Sudoeste 23 Sudoeste 0 1001.6 -0.6 81
2018-11-29 14:00:00 15.1 9 Sudoeste 20 Sudoeste 0 1001.6 0.3 80
2018-11-29 13:00:00 14.3 6 Sur 18 Sudoeste 0 1001.8 1 85
2018-11-29 12:00:00 13.5 10 Sudoeste 23 Sudoeste 0 1002.2 2 90
2018-11-29 11:00:00 13.6 10 Sudoeste 21 Sudoeste 0 1001.3 1.6 95
2018-11-29 10:00:00 13.3 7 Sur 29 Sur 0 1000.8 1.7 96
2018-11-29 09:00:00 13 11 Sur 31 Sur 0.4 1000.2 1.6 96
2018-11-29 08:00:00 12.8 14 Sur 39 Sur 0.8 999.7 1.3 95
2018-11-29 07:00:00 12.1 13 Sur 45 Sur 1.2 999.1 -0.5 94
2018-11-29 06:00:00 11.6 21 Sur 51 Sur 2.2 998.6 -1 94
2018-11-29 05:00:00 11.4 21 Sudeste 49 Sur 2 998.4 -1.5 93
2018-11-29 04:00:00 11.6 20 Sur 52 Sur 0 999.6 -1.4 88
2018-11-29 03:00:00 12.8 15 Sur 46 Sudeste 0 999.6 -2.5 79
2018-11-29 02:00:00 13.3 12 Sudeste 50 Sur 0 999.9 -2.5 72
2018-11-29 01:00:00 13.3 14 Sudeste 57 Sur 0 1001 -1.7 72
2018-11-29 00:00:00 12.9 18 Sur 54 Sur 0 1002.1 -0.7 74
2018-11-28 23:00:00 12.9 30 Sur 57 Sur 0 1002.4 -1 75
2018-11-28 22:00:00 13.1 20 Sur 44 Sur 0 1002.7 -0.7 71
2018-11-28 21:00:00 13.2 18 Sur 50 Sur 0 1002.8 -0.7 69
2018-11-28 13:00:00 13.3 24 Sudeste 44 Sudeste 0 1005.4 -1.3 72
2018-11-28 12:00:00 12.8 19 Sudeste 33 Sudeste 0 1006.5 0.1 74
2018-11-28 11:00:00 12.9 12 Sudeste 37 Sur 0 1006.8 0.9 75
2018-11-28 10:00:00 12.6 14 Sudeste 37 Sudeste 0 1006.7 1.1 75
2018-11-28 09:00:00 12.6 19 Sudeste 41 Sudeste 0 1006.4 0.8 73
2018-11-28 08:00:00 12.4 19 Sudeste 39 Sudeste 0 1005.9 0.3 74
2018-11-28 07:00:00 12.4 16 Sudeste 41 Sudeste 0 1005.6 -0.4 73
2018-11-28 06:00:00 12.5 19 Sudeste 49 Sudeste 0 1005.6 -0.4 73
2018-11-28 05:00:00 12.4 19 Sudeste 41 Sudeste 0 1005.6 -1 75
2018-11-28 04:00:00 12.2 14 Sudeste 42 Sudeste 0 1006 -1.1 76
2018-11-28 03:00:00 12.2 17 Sudeste 32 Sudeste 0 1006 -1.2 74
2018-11-28 02:00:00 12.2 15 Sur 32 Sur 0 1006.6 -0.6 74
2018-11-28 01:00:00 12.2 14 Sur 34 Sudeste 0 1007.1 0.4 74
2018-11-28 00:00:00 12.2 15 Sur 40 Sur 0 1007.2 0.4 74
2018-11-27 23:00:00 12.1 18 Sur 32 Sur 0 1007.2 0.3 75
2018-11-27 22:00:00 12.2 15 Sur 35 Sudeste 0 1006.7 -0.3 76
2018-11-27 21:00:00 12.2 14 Sur 27 Sudeste 0 1006.8 -0.1 77
2018-11-27 20:00:00 11.9 11 Sur 21 Sur 0 1006.9 -0.2 81
2018-11-27 19:00:00 12.1 8 Sur 33 Sudeste 0 1007 -0.2 81
2018-11-27 18:00:00 12.4 15 Sudeste 31 Sur 0 1006.9 -0.5 78
2018-11-27 17:00:00 12.8 13 Sudeste 30 Sur 0 1007.1 -0.7 76
2018-11-27 16:00:00 13.2 13 Sur 33 Sur 0 1007.2 -0.9 75
2018-11-27 15:00:00 12.9 11 Sur 33 Sur 0 1007.4 -1.3 76
2018-11-27 14:00:00 12.3 15 Sudeste 34 Sudeste 0 1007.8 -0.5 77
2018-11-27 13:00:00 12.1 15 Sudeste 35 Sudeste 0 1008.1 -0.2 76
2018-11-27 12:00:00 11.6 13 Sudeste 34 Sur 0 1008.7 1 77
2018-11-27 11:00:00 11 15 Sudeste 31 Sudeste 0 1008.3 0.8 78
2018-11-27 10:00:00 10.6 6 Sur 22 Sur 0 1008.3 0.4 80
2018-11-27 09:00:00 9.6 4 Sudeste 22 Sur 0 1007.7 -0.8 82
2018-11-27 08:00:00 10 7 Sur 18 Sudeste 0 1007.5 -0.9 81
2018-11-27 07:00:00 8.8 3 Sudeste 10 Norte 0 1007.9 -1 85
2018-11-27 06:00:00 8.2 4 Norte 12 Noroeste 0 1008.5 -0.5 87
2018-11-27 05:00:00 7.8 4 Noroeste 9 Norte 0 1008.4 -1.1 89
2018-11-27 04:00:00 7.5 7 Norte 9 Norte 0 1008.9 -0.8 89
2018-11-27 03:00:00 7.4 2 Nordeste 7 Nordeste 0 1009 -0.9 91
2018-11-27 02:00:00 7.4 5 Norte 9 Este 0 1009.5 -0.4 91
2018-11-27 01:00:00 7.7 4 Norte 8 Nordeste 0 1009.7 -0.3 90
2018-11-27 00:00:00 7.3 4 Nordeste 7 Nordeste 0 1009.9 0 91
2018-11-26 23:00:00 7.2 5 Este 11 Nordeste 0 1009.9 0.5 92
2018-11-26 22:00:00 7.8 5 Nordeste 9 Nordeste 0 1010 0.8 88
2018-11-26 21:00:00 8.3 5 Nordeste 13 Este 0 1009.9 1.4 87
2018-11-26 20:00:00 8.9 4 Este 7 Sudeste 0 1009.4 1.4 86
2018-11-26 19:00:00 10 2 Este 8 Sudeste 0 1009.2 1.9 81
2018-11-26 18:00:00 11.7 4 Sur 19 Sudoeste 0 1008.5 1.5 73
2018-11-26 17:00:00 13.6 9 Sudoeste 16 Sudoeste 0 1008 1.3 66
2018-11-26 16:00:00 13.5 10 Sudoeste 19 Sudoeste 0 1007.3 0.2 69
2018-11-26 15:00:00 13.7 10 Sudoeste 17 Sudoeste 0 1007 -0.1 69
2018-11-26 14:00:00 13.3 5 Noroeste 17 Noroeste 0 1006.7 0.3 69
2018-11-26 13:00:00 13.5 11 Noroeste 18 Noroeste 0 1007.1 1.3 69
2018-11-26 12:00:00 13 10 Noroeste 18 Noroeste 0 1007.1 2.5 72
2018-11-26 11:00:00 11.9 5 Nordeste 9 Nordeste 0 1006.4 3.4 78
2018-11-26 10:00:00 10.3 2 Norte 10 Noroeste 0 1005.8 4.3 85
2018-11-26 09:00:00 10.3 4 Nordeste 13 Norte 0 1004.6 4.2 83
2018-11-26 08:00:00 9.8 3 Sudoeste 13 Norte 0 1003 4.6 86
2018-11-26 07:00:00 10.2 4 Noroeste 33 Noroeste 0 1001.5 3.9 84
2018-11-26 06:00:00 11 14 Noroeste 35 Oeste 0 1000.4 3.8 84
2018-11-26 05:00:00 11.2 21 Oeste 63 Oeste 0.2 998.4 1.7 90
2018-11-26 04:00:00 10.9 25 Oeste 68 Oeste 0.6 997.6 1 86
2018-11-26 03:00:00 10.1 24 Oeste 60 Sudoeste 1.4 996.6 0.4 93
2018-11-26 02:00:00 9.9 25 Sudoeste 50 Sudoeste 1.4 996.7 1.5 89
2018-11-26 01:00:00 9 10 Sudoeste 32 Oeste 0 996.6 2.8 85
2018-11-26 00:00:00 6.7 5 Sudoeste 16 Sur 0.2 996.2 6.3 97
2018-11-25 23:00:00 6.7 3 Este 26 Norte 0.4 995.2 4.8 96
2018-11-25 22:00:00 6.7 21 Noroeste 67 Noroeste 4.2 993.8 2.1 95
2018-11-25 21:00:00 9.1 5 Este 14 Nordeste 0.4 989.9 -2.9 96
2018-11-25 20:00:00 9.1 3 Este 12 Este 0.4 990.4 -3.6 95
2018-11-25 19:00:00 9 3 Norte 16 Este 0.6 991.7 -2.6 93
2018-11-25 18:00:00 9.2 7 Nordeste 12 Nordeste 2.2 992.8 -1.5 93
2018-11-25 17:00:00 10.4 2 Norte 13 Sur 0 994 -1.6 89
2018-11-25 16:00:00 10.8 6 Sur 15 Sur 0 994.3 -2.5 85
2018-11-25 15:00:00 11 8 Sur 19 Sur 0 994.3 -3 82
2018-11-25 14:00:00 11 8 Sur 19 Sudeste 0 995.6 -2.4 80
2018-11-25 13:00:00 10.4 4 Sudoeste 6 Sudoeste 0 996.8 -0.8 74
2018-11-25 12:00:00 8.8 5 Nordeste 9 Nordeste 0 997.3 0 80
2018-11-25 11:00:00 7.2 4 Sur 18 Nordeste 0 998 0.6 80
2018-11-25 10:00:00 4.9 9 Nordeste 17 Este 0 997.6 0.8 87
2018-11-25 09:00:00 4.7 11 Este 17 Nordeste 0 997.3 0.5 89
2018-11-25 08:00:00 4.6 11 Nordeste 18 Nordeste 0 997.4 0.9 91
2018-11-25 07:00:00 4.8 12 Nordeste 18 Nordeste 0 996.8 0.1 93
2018-11-25 06:00:00 5.1 6 Nordeste 9 Nordeste 0 996.8 0.8 94
2018-11-25 05:00:00 5.9 5 Nordeste 9 Norte 0 996.5 0.8 92
2018-11-25 04:00:00 6.6 4 Norte 11 Norte 0 996.7 0.9 90
2018-11-25 03:00:00 7.5 3 Norte 9 Nordeste 0 996 0.5 91
2018-11-25 02:00:00 8.6 3 Norte 11 Norte 0 995.7 1 91
2018-11-25 01:00:00 9.2 9 Norte 22 Norte 0 995.8 2.1 90
2018-11-25 00:00:00 9.1 8 Noroeste 23 Noroeste 0 995.5 3 94
2018-11-24 23:00:00 10.1 9 Noroeste 18 Noroeste 0 994.7 3.2 93
2018-11-24 22:00:00 11.7 8 Oeste 16 Noroeste 0 993.7 3 96
2018-11-24 21:00:00 12.4 10 Sudoeste 40 Sur 0.8 992.5 1.8 97
2018-11-24 20:00:00 12.7 20 Sur 48 Sudeste 2.4 991.5 -0.1 99
2018-11-24 19:00:00 12.3 24 Sur 66 Sur 1 990.7 -1.8 94
2018-11-24 18:00:00 11.7 24 Sur 54 Sudeste 2 990.7 -2.7 94
2018-11-24 17:00:00 11.6 20 Sur 58 Sudeste 1.4 991.6 -3.2 95
2018-11-24 16:00:00 11.4 17 Sur 49 Sur 2.2 992.5 -3.5 94
2018-11-24 15:00:00 11.7 19 Sur 42 Sudeste 0.8 993.4 -3.7 93
2018-11-24 14:00:00 11.3 9 Sur 24 Sudeste 2.6 994.8 -3.1 97
2018-11-24 13:00:00 11.1 5 Sur 32 Sur 1.2 996 -1.9 95
2018-11-24 12:00:00 10.8 11 Sudeste 28 Sudeste 1.8 997.1 -0.7 94
2018-11-24 11:00:00 10.6 8 Sudeste 21 Sudeste 1.2 997.9 0 95
2018-11-24 10:00:00 10.6 3 Sur 20 Sudeste 0.2 997.9 0 94
2018-11-24 09:00:00 9.9 2 Sur 9 Sur 0 997.8 -0.4 96
2018-11-24 08:00:00 9.7 4 Sudeste 8 Sudeste 0 997.9 -0.6 97
2018-11-24 07:00:00 9.4 3 Nordeste 10 Este 0.4 997.9 -1 98
2018-11-24 06:00:00 9.3 4 Norte 6 Norte 0.2 998.2 -0.8 98
2018-11-24 05:00:00 9.2 5 Norte 9 Sudeste 1.4 998.5 -0.6 98
2018-11-24 04:00:00 9.4 2 Este 12 Sur 1.6 998.9 -0.5 98
2018-11-24 03:00:00 9.1 3 Sudoeste 6 Sur 0 999 -0.6 97
2018-11-24 02:00:00 9 2 Este 8 Nordeste 0 999.1 -0.1 97
2018-11-24 01:00:00 9.1 3 Sur 14 Sudoeste 0.6 999.4 0.5 96
2018-11-24 00:00:00 9.3 4 Noroeste 14 Sur 0.2 999.6 0.8 97
2018-11-23 23:00:00 9.5 4 Sudoeste 10 Oeste 0 999.2 0.8 94
2018-11-23 22:00:00 9.7 7 Sur 15 Sur 0.4 998.9 0.6 96
2018-11-23 21:00:00 10 5 Sudoeste 30 Sur 2 998.8 0.8 95
2018-11-23 20:00:00 9.9 3 Sudeste 24 Sudeste 1.6 998.4 0.3 96
2018-11-23 19:00:00 10.4 9 Sudeste 19 Sur 0.6 998.3 0.3 94
2018-11-23 18:00:00 10.9 11 Sur 21 Sur 0 998 0 85
2018-11-23 17:00:00 11.7 7 Sur 29 Sudoeste 0.2 998.1 -0.4 88
2018-11-23 16:00:00 11.9 10 Sudoeste 26 Sudoeste 0.8 998 -0.7 84
2018-11-23 15:00:00 12 13 Sur 32 Sudoeste 1.4 998 -1.2 85
2018-11-23 14:00:00 9.1 7 Norte 19 Sur 0.8 998.5 0 96
2018-11-23 13:00:00 8.3 4 Sur 13 Sur 3.8 998.7 0.2 96
2018-11-23 12:00:00 8.4 13 Oeste 41 Noroeste 7.6 999.2 1 92
2018-11-23 11:00:00 9.5 8 Sur 26 Sudeste 0.4 998.5 0.5 91
2018-11-23 10:00:00 8.2 4 Norte 8 Norte 0 998.5 0.7 98
2018-11-23 09:00:00 7.8 3 Norte 15 Sudeste 0.4 998.2 0.4 96
2018-11-23 08:00:00 7.7 3 Sur 13 Este 2 998 0.2 97
2018-11-23 07:00:00 7.6 4 Norte 11 Sudeste 2.6 997.8 -0.1 97
2018-11-23 06:00:00 7.5 5 Nordeste 13 Este 0.2 997.8 0.2 97
2018-11-23 05:00:00 7.8 7 Sudeste 21 Este 5.2 997.8 0.3 94
2018-11-23 04:00:00 7.9 5 Norte 22 Sudeste 1.8 997.9 0.5 95
2018-11-23 03:00:00 8 10 Este 17 Este 0 997.6 0.3 95
2018-11-23 02:00:00 8.1 3 Nordeste 16 Norte 1.4 997.5 0.4 95
2018-11-23 01:00:00 8.3 6 Noroeste 14 Norte 0 997.4 0.5 93
2018-11-23 00:00:00 8.7 4 Este 23 Sudeste 0 997.3 0.6 89
2018-11-22 23:00:00 8.9 9 Sur 21 Sur 0.2 997.1 0.5 90
2018-11-22 22:00:00 8.9 6 Sudeste 21 Este 0 996.9 0.5 89
2018-11-22 21:00:00 8.7 4 Sudeste 20 Sudeste 0.2 996.7 1.1 90
2018-11-22 20:00:00 8.7 8 Sudeste 26 Sudeste 1 996.6 1.2 90
2018-11-22 19:00:00 9 11 Sudeste 26 Sur 1.8 996.4 1.2 91
2018-11-22 18:00:00 10.1 11 Sudeste 31 Sudeste 0 995.6 0.4 83
2018-11-22 17:00:00 10.8 11 Sudeste 34 Sur 0 995.4 -0.3 85
2018-11-22 16:00:00 10.4 14 Sudeste 36 Sudeste 0.6 995.2 -0.8 88
2018-11-22 15:00:00 10.6 18 Sudeste 36 Sur 2.2 995.2 -1.6 83
2018-11-22 14:00:00 10.8 9 Sur 32 Sudeste 0.4 995.7 -1.1 85
2018-11-22 13:00:00 11.1 8 Sudeste 32 Sudeste 0.2 996 -1 84
2018-11-22 12:00:00 10.9 13 Sudeste 26 Sudeste 0 996.8 0.6 83
2018-11-22 11:00:00 10 10 Sudeste 26 Sudeste 0.4 996.8 1 90
2018-11-22 10:00:00 8.8 7 Sur 21 Sur 1.6 997 1.5 92
2018-11-22 09:00:00 8.9 5 Sur 18 Sudeste 0.4 996.2 1.1 88
2018-11-22 08:00:00 8.5 6 Este 24 Sudeste 1 995.8 0.3 90
2018-11-22 07:00:00 8.8 12 Sudeste 30 Sudeste 0 995.5 0.5 87
2018-11-22 06:00:00 8.9 8 Sudeste 29 Sudeste 0.4 995.1 0.3 85
2018-11-22 05:00:00 9.4 10 Sudeste 27 Sur 0 995.5 0.3 80
2018-11-22 04:00:00 9.3 13 Sudeste 32 Sudeste 0 995 -0.5 82
2018-11-22 03:00:00 9.2 13 Sudeste 30 Sudeste 0 994.8 -0.5 80
2018-11-22 02:00:00 9 17 Sudeste 34 Sudeste 0 995.2 0 85
2018-11-22 01:00:00 9.1 17 Sudeste 32 Sudeste 0 995.5 1 87
2018-11-22 00:00:00 8.7 4 Norte 29 Sudeste 0 995.3 0.5 88
2018-11-21 23:00:00 8.7 11 Sudeste 28 Sudeste 0.4 995.2 0.7 88
2018-11-21 22:00:00 8.8 17 Sudeste 30 Sudeste 0.4 994.5 0.2 90
2018-11-21 21:00:00 8.7 11 Sudeste 23 Sudeste 0 994.8 1.4 89
2018-11-21 20:00:00 8.8 9 Sur 27 Sur 0.2 994.5 1.3 88
2018-11-21 19:00:00 8.9 8 Sudeste 26 Sudeste 5 994.3 1.3 94
2018-11-21 18:00:00 10 9 Sudeste 23 Sur 0 993.4 0.7 87
2018-11-21 17:00:00 10.4 9 Sudeste 19 Sudeste 0 993.2 0.8 88
2018-11-21 16:00:00 9.9 10 Sudeste 37 Sur 3.6 993 0.3 91
2018-11-21 15:00:00 9.3 9 Sudeste 33 Sur 7 992.7 0.3 88
2018-11-21 14:00:00 10.5 13 Sur 26 Sur 0.4 992.4 0.4 86
2018-11-21 13:00:00 10 4 Sur 32 Oeste 1.8 992.7 1.1 94
2018-11-21 12:00:00 12.4 14 Sur 30 Sudeste 0 992.4 1.6 76
2018-11-21 11:00:00 10.7 7 Sur 21 Sur 0 992 1.6 82
2018-11-21 10:00:00 9.8 10 Sur 19 Sur 0 991.6 1.1 91
2018-11-21 09:00:00 9.1 5 Nordeste 10 Nordeste 0.2 990.8 0.8 95
2018-11-21 08:00:00 8.9 8 Noroeste 18 Oeste 0 990.4 0.4 96
2018-11-21 07:00:00 9.1 5 Sur 22 Sur 0.8 990.5 0.3 94
2018-11-21 06:00:00 9.1 5 Sudeste 13 Sur 0.2 990 -0.2 94
2018-11-21 05:00:00 8.8 3 Sudeste 14 Sudeste 0 990 -0.1 96
2018-11-21 04:00:00 8.5 3 Nordeste 5 Nordeste 0 990.2 0.1 97
2018-11-21 03:00:00 8.5 2 Norte 6 Este 0 990.2 0.2 96
2018-11-21 02:00:00 8.5 6 Nordeste 10 Nordeste 0 990.1 0.2 95
2018-11-21 01:00:00 8.7 6 Nordeste 10 Este 0 990.1 0.5 96
2018-11-21 00:00:00 8.6 10 Nordeste 16 Este 0 990 0.9 94
2018-11-20 23:00:00 8.5 10 Nordeste 14 Nordeste 0 989.9 1.3 98
2018-11-20 22:00:00 8.6 3 Nordeste 9 Sudeste 0 989.6 1.4 96
2018-11-20 21:00:00 9.4 3 Sudeste 7 Nordeste 0 989.1 1.5 95
2018-11-20 20:00:00 10.2 4 Nordeste 7 Noroeste 0 988.6 1.7 93
2018-11-20 19:00:00 10.5 3 Norte 7 Norte 0 988.2 1.6 91
2018-11-20 18:00:00 11 3 Noroeste 11 Noroeste 0 987.6 1.2 90
2018-11-20 17:00:00 11.4 8 Noroeste 12 Noroeste 0 986.9 0.8 90
2018-11-20 16:00:00 11.9 6 Noroeste 9 Noroeste 0 986.6 0.2 92
2018-11-20 15:00:00 11.8 2 Sudoeste 13 Noroeste 0.2 986.4 -0.2 94
2018-11-20 14:00:00 12 7 Noroeste 15 Noroeste 0.8 986.1 -0.2 93
2018-11-20 13:00:00 12.3 5 Sudoeste 15 Sudoeste 0 986.4 0.3 93
2018-11-20 12:00:00 11.9 6 Sudoeste 14 Sur 0 986.6 0.7 94
2018-11-20 11:00:00 11.7 5 Sur 9 Sur 0 986.3 0.8 98
2018-11-20 10:00:00 11 2 Este 5 Sudeste 0 986.1 0.6 99
2018-11-20 09:00:00 10.3 2 Este 7 Norte 0 985.9 0.1 98
2018-11-20 08:00:00 10.4 5 Norte 8 Sur 0 985.5 -0.5 97
2018-11-20 07:00:00 10.9 6 Sudeste 9 Sudeste 0.6 985.5 -1 97
2018-11-20 06:00:00 11.3 5 Sur 8 Sur 1 985.8 -1 97
2018-11-20 05:00:00 11.6 3 Sur 4 Sur 0.2 986 -1.2 97
2018-11-20 04:00:00 11.7 2 Sudoeste 7 Sudoeste 0 986.5 -1.2 96
2018-11-20 03:00:00 11.9 2 Sur 5 Sur 0 986.8 -1.3 96
2018-11-20 02:00:00 12 2 Sur 7 Sur 0 987.2 -1.4 96
2018-11-20 01:00:00 12.4 2 Sur 5 Sudoeste 0.6 987.7 -1 96
2018-11-20 00:00:00 12.5 0 Calma 4 Sudoeste 0.2 988.1 -0.8 95
2018-11-19 23:00:00 12.6 3 Sur 8 Sur 0 988.6 -0.5 94
2018-11-19 22:00:00 12.8 2 Sudoeste 5 Sudeste 0 988.7 -0.3 92
2018-11-19 21:00:00 13 3 Sudeste 5 Sudeste 0 988.9 0.1 92
2018-11-19 20:00:00 13.3 0 Calma 7 Sur 0 989.1 0.2 88
2018-11-19 19:00:00 13.6 4 Sudeste 5 Sudeste 0 989 0.2 88
2018-11-19 18:00:00 14.4 0 Calma 5 Sudoeste 0 988.8 0 84
2018-11-19 17:00:00 14.8 3 Sudoeste 9 Sudoeste 0 988.9 -0.3 82
2018-11-19 16:00:00 15.7 5 Oeste 11 Oeste 0 988.8 -0.9 79
2018-11-19 15:00:00 16.1 6 Oeste 12 Oeste 0 988.8 -1.4 75
2018-11-19 14:00:00 16.2 6 Noroeste 10 Noroeste 0 989.2 -0.8 75
2018-11-19 13:00:00 15.7 4 Sudoeste 9 Sudoeste 0 989.7 0.1 81
2018-11-19 12:00:00 14.4 3 Oeste 6 Sudoeste 0 990.2 1.2 86
2018-11-19 11:00:00 12.4 5 Nordeste 9 Este 0 990 1.4 93
2018-11-19 10:00:00 11.8 4 Nordeste 9 Este 0 989.6 1.2 97
2018-11-19 09:00:00 11.3 3 Este 8 Este 0 989 0.9 96
2018-11-19 08:00:00 11.6 7 Nordeste 8 Este 0 988.6 1 96
2018-11-19 07:00:00 11.7 5 Nordeste 9 Nordeste 1 988.4 1 97
2018-11-19 06:00:00 12 0 Calma 5 Norte 1 988.1 0.7 97
2018-11-19 05:00:00 11.9 2 Sudoeste 7 Nordeste 0.4 987.6 0.3 96
2018-11-19 04:00:00 12.1 6 Nordeste 10 Este 0.6 987.4 0.1 96
2018-11-19 03:00:00 12.2 4 Nordeste 8 Nordeste 0.8 987.4 0 95
2018-11-19 02:00:00 12.4 4 Nordeste 7 Norte 0.8 987.3 -0.1 95
2018-11-19 01:00:00 12.4 5 Norte 8 Norte 2 987.3 -0.2 93
2018-11-19 00:00:00 12.7 0 Calma 6 Este 0 987.4 0 86
2018-11-18 23:00:00 12.7 4 Este 14 Nordeste 0 987.4 0.2 85
2018-11-18 22:00:00 13.6 6 Este 9 Nordeste 0 987.5 0.3 81
2018-11-18 21:00:00 13.7 7 Nordeste 10 Este 0 987.4 0.1 84
2018-11-18 20:00:00 14.5 0 Calma 5 Sudeste 0 987.2 0 83
2018-11-18 19:00:00 14.8 5 Sudeste 6 Sudeste 0 987.2 0 83
2018-11-18 18:00:00 15.6 3 Sur 6 Sudoeste 0 987.3 -0.2 80
2018-11-18 17:00:00 17 3 Sudeste 6 Este 0 987.2 -0.5 71
2018-11-18 16:00:00 18 5 Nordeste 9 Nordeste 0 987.2 -1.1 61
2018-11-18 15:00:00 18.1 6 Nordeste 11 Nordeste 0 987.5 -1.2 60
2018-11-18 14:00:00 18.8 3 Norte 12 Nordeste 0 987.7 -0.9 59
2018-11-18 13:00:00 19.2 3 Nordeste 15 Norte 0 988.3 -0.2 57
2018-11-18 12:00:00 18.5 4 Norte 10 Norte 0 988.7 0.4 58
2018-11-18 11:00:00 17.2 6 Nordeste 23 Este 0 988.6 0.6 60
2018-11-18 10:00:00 16.2 14 Nordeste 29 Nordeste 0 988.5 0.2 59
2018-11-18 09:00:00 16.1 10 Nordeste 25 Nordeste 0 988.3 -0.4 58
2018-11-18 08:00:00 16.6 17 Nordeste 34 Nordeste 0 988 -0.9 55
2018-11-18 07:00:00 16.5 18 Nordeste 34 Este 0 988.3 -0.9 55
2018-11-18 06:00:00 16.4 17 Nordeste 34 Nordeste 0 988.7 -0.8 56
2018-11-18 05:00:00 16.5 13 Nordeste 20 Nordeste 0 988.9 -1.5 58
2018-11-18 04:00:00 16.8 5 Este 19 Nordeste 0 989.2 -2 57
2018-11-18 03:00:00 17 11 Nordeste 24 Nordeste 0 989.5 -2.3 58
2018-11-18 02:00:00 17 13 Este 27 Este 0 990.4 -1.9 58
2018-11-18 01:00:00 16.7 4 Este 24 Este 0 991.2 -1.5 60
2018-11-18 00:00:00 17.1 9 Este 17 Sudeste 0 991.8 -1 58
2018-11-17 23:00:00 17.2 7 Este 17 Este 0 992.3 -0.7 57
2018-11-17 22:00:00 17.2 11 Nordeste 19 Nordeste 0 992.7 -0.5 58
2018-11-17 21:00:00 17.4 8 Nordeste 22 Nordeste 0 992.8 -0.6 58
2018-11-17 20:00:00 18.2 9 Nordeste 30 Este 0 993 -0.3 53
2018-11-17 19:00:00 18 13 Este 23 Este 0 993.2 0 54
2018-11-17 18:00:00 18.3 7 Nordeste 15 Nordeste 0 993.4 -0.1 57
2018-11-17 17:00:00 19.2 11 Este 22 Este 0 993.3 -1.1 53
2018-11-17 16:00:00 20.6 6 Este 26 Este 0 993.2 -2.2 51
2018-11-17 15:00:00 20.1 6 Este 12 Este 0 993.5 -2.7 56
2018-11-17 14:00:00 19 4 Nordeste 18 Nordeste 0 994.4 -2.3 63
2018-11-17 13:00:00 18.6 3 Oeste 6 Sur 0 995.4 -1.8 67
2018-11-17 12:00:00 18.1 4 Norte 10 Norte 0 996.2 -1 65
2018-11-17 11:00:00 16.9 3 Nordeste 9 Nordeste 0 996.7 -0.4 71
2018-11-17 10:00:00 13.9 3 Nordeste 11 Nordeste 0 997.2 0.2 78
2018-11-17 09:00:00 12.7 5 Nordeste 13 Nordeste 0 997.2 0.2 80
2018-11-17 08:00:00 13.3 10 Nordeste 13 Nordeste 0 997.1 -0.1 77
2018-11-17 07:00:00 13.6 8 Nordeste 12 Este 0 997 -0.7 75
2018-11-17 06:00:00 14 10 Nordeste 18 Nordeste 0 997 -0.9 72
2018-11-17 05:00:00 13.3 7 Nordeste 16 Nordeste 0 997.2 -0.7 76
2018-11-17 04:00:00 12.9 9 Norte 16 Nordeste 0 997.7 -0.6 79
2018-11-17 03:00:00 13.1 10 Nordeste 13 Este 0 997.9 -0.8 79
2018-11-17 02:00:00 13.7 4 Este 12 Nordeste 0 997.9 -1.1 77
2018-11-17 01:00:00 13.2 6 Nordeste 15 Nordeste 0 998.3 -0.9 81
2018-11-17 00:00:00 13.2 9 Nordeste 14 Nordeste 0 998.7 -1 82
2018-11-16 23:00:00 13.7 6 Este 12 Nordeste 0 999 -0.9 82
2018-11-16 22:00:00 13.8 6 Nordeste 12 Nordeste 0 999.2 -0.8 87
2018-11-16 21:00:00 14.5 8 Este 11 Este 0 999.7 0 85
2018-11-16 20:00:00 15.1 3 Oeste 9 Nordeste 0 999.9 0.5 82
2018-11-16 19:00:00 16.6 0 Calma 9 Oeste 0 1000 0.8 76
2018-11-16 18:00:00 18.4 3 Sudeste 7 Sudoeste 0 999.7 -0.3 71
2018-11-16 17:00:00 20.3 5 Sur 17 Sur 0 999.4 -1.3 59
2018-11-16 16:00:00 20.3 8 Sur 17 Sur 0 999.2 -2.4 57
2018-11-16 15:00:00 20.1 7 Sudoeste 15 Sudoeste 0 1000 -2.7 59
2018-11-16 14:00:00 19.7 5 Sudoeste 9 Sudoeste 0 1000.7 -2.4 62
2018-11-16 13:00:00 18.4 4 Sudoeste 7 Oeste 0 1001.6 -1.2 70
2018-11-16 12:00:00 16.6 3 Oeste 5 Oeste 0 1002.7 0.1 73
2018-11-16 11:00:00 14.5 2 Oeste 5 Oeste 0 1003.1 0.9 81
2018-11-16 10:00:00 12.4 3 Sur 9 Este 0 1002.8 1 84
2018-11-16 09:00:00 11.7 9 Nordeste 12 Este 0 1002.6 0.8 84
2018-11-16 08:00:00 11.6 4 Sudeste 14 Este 0 1002.2 0.5 86
2018-11-16 07:00:00 11.8 6 Este 14 Nordeste 0 1001.8 -0.2 84
2018-11-16 06:00:00 12 6 Nordeste 9 Nordeste 0 1001.8 -0.3 84
2018-11-16 05:00:00 13.1 7 Nordeste 15 Nordeste 0 1001.7 -0.8 77
2018-11-16 04:00:00 12.7 2 Sudeste 11 Nordeste 0 1002 -0.8 82
2018-11-16 03:00:00 13.9 7 Nordeste 13 Nordeste 0 1002.1 -0.1 77
2018-11-16 02:00:00 13.8 4 Nordeste 13 Nordeste 0 1002.5 0.2 78
2018-11-16 01:00:00 13 4 Sudeste 11 Nordeste 0 1002.8 0.4 84
2018-11-16 00:00:00 14 3 Nordeste 11 Este 0 1002.2 -0.4 81
2018-11-15 23:00:00 13.7 2 Noroeste 10 Este 0 1002.3 -0.5 86
2018-11-15 22:00:00 14.6 9 Nordeste 15 Nordeste 0 1002.4 -0.1 85
2018-11-15 21:00:00 15.6 9 Nordeste 16 Nordeste 0 1002.6 0.5 82
2018-11-15 20:00:00 16.4 6 Nordeste 10 Este 0 1002.8 1.7 75
2018-11-15 19:00:00 16.7 7 Nordeste 9 Nordeste 0 1002.5 1.8 74
2018-11-15 18:00:00 18.2 2 Sudeste 13 Sudoeste 0 1002.1 1 70
2018-11-15 17:00:00 20.7 6 Sudoeste 10 Sudoeste 0 1001.1 -0.3 57
2018-11-15 16:00:00 20.8 4 Sudoeste 9 Oeste 0 1000.7 -1.4 60
2018-11-15 15:00:00 20.2 4 Sudoeste 11 Sudoeste 0 1001.1 -1.3 66
2018-11-15 14:00:00 19.3 7 Este 12 Este 0 1001.4 -0.8 70
2018-11-15 13:00:00 18 3 Noroeste 7 Oeste 0 1002.1 0.1 74
2018-11-15 12:00:00 17.4 4 Oeste 6 Sudoeste 0 1002.4 0.9 74
2018-11-15 11:00:00 16.2 3 Sudeste 14 Nordeste 0 1002.2 0.9 81
2018-11-15 10:00:00 14.5 8 Nordeste 17 Nordeste 0 1002 1.5 79
2018-11-15 09:00:00 13.7 10 Nordeste 15 Nordeste 0 1001.5 1.1 81
2018-11-15 08:00:00 12.3 4 Noroeste 10 Nordeste 0 1001.3 1.3 86
2018-11-15 07:00:00 12.8 7 Este 15 Nordeste 0 1000.5 0.2 82
2018-11-15 06:00:00 11.8 2 Oeste 15 Nordeste 0 1000.4 0.2 85
2018-11-15 05:00:00 12.4 4 Este 14 Nordeste 0 1000 -0.2 82
2018-11-15 04:00:00 11.7 3 Este 5 Sudeste 0 1000.3 -0.2 86
2018-11-15 03:00:00 11.5 5 Este 7 Este 0 1000.2 -0.6 87
2018-11-15 02:00:00 12 4 Este 8 Nordeste 0 1000.2 -1 83
2018-11-15 01:00:00 13 5 Este 11 Nordeste 0 1000.5 -1 77
2018-11-15 00:00:00 13 3 Norte 12 Nordeste 0 1000.8 -0.7 78
2018-11-14 23:00:00 13.3 8 Este 12 Nordeste 0 1001.2 -0.8 77
2018-11-14 22:00:00 13.8 5 Nordeste 12 Este 0 1001.5 -0.5 78
2018-11-14 21:00:00 14 8 Este 14 Nordeste 0 1001.5 -0.6 82
2018-11-14 20:00:00 14.6 8 Nordeste 15 Este 0 1002 -0.4 84
2018-11-14 19:00:00 15.6 12 Nordeste 16 Nordeste 0 1002 -0.5 82
2018-11-14 18:00:00 17.8 2 Sudeste 9 Sur 0 1002.1 -1 73
2018-11-14 17:00:00 19.7 4 Sur 11 Sur 0 1002.4 -1.3 64
2018-11-14 16:00:00 19.6 3 Sur 13 Sur 0 1002.5 -1.9 63
2018-11-14 15:00:00 19.1 6 Sur 14 Sur 0 1003.1 -2.2 58
2018-11-14 14:00:00 18.8 3 Sudoeste 8 Sudoeste 0 1003.7 -2 65
2018-11-14 13:00:00 17.4 2 Sudoeste 6 Oeste 0 1004.4 -1.6 74
2018-11-14 12:00:00 14.8 2 Sudoeste 4 Oeste 0 1005.3 -0.6 77
2018-11-14 11:00:00 12 2 Oeste 12 Este 0 1005.7 0 85
2018-11-14 10:00:00 9.4 2 Sur 17 Nordeste 0 1006 0.2 89
2018-11-14 09:00:00 9.2 9 Nordeste 15 Nordeste 0 1005.9 -0.1 90
2018-11-14 08:00:00 8.7 5 Nordeste 18 Nordeste 0 1005.7 -0.7 93
2018-11-14 07:00:00 8.7 4 Nordeste 13 Nordeste 0 1005.8 -1.3 92
2018-11-14 06:00:00 8.7 5 Nordeste 16 Nordeste 0 1006 -1.4 91
2018-11-14 05:00:00 8.5 7 Nordeste 14 Nordeste 0 1006.4 -1.5 92
2018-11-14 04:00:00 7.9 4 Nordeste 7 Nordeste 0 1007.1 -1.4 93
2018-11-14 03:00:00 8.1 3 Sudeste 13 Nordeste 0 1007.4 -1.5 92
2018-11-14 02:00:00 9.1 9 Nordeste 16 Nordeste 0 1007.9 -1.6 87
2018-11-14 01:00:00 9.3 10 Este 18 Nordeste 0 1008.5 -1 87
2018-11-14 00:00:00 9.4 10 Nordeste 14 Nordeste 0 1008.9 -0.5 88
2018-11-13 23:00:00 9.3 4 Este 14 Nordeste 0 1009.5 0 88
2018-11-13 22:00:00 9.5 7 Nordeste 11 Nordeste 0 1009.5 0.2 90
2018-11-13 21:00:00 10 3 Este 13 Este 0 1009.4 0.2 89
2018-11-13 20:00:00 10.7 3 Este 8 Este 0 1009.5 0.2 88
2018-11-13 19:00:00 12.1 4 Nordeste 6 Nordeste 0 1009.3 0 82
2018-11-13 18:00:00 14.6 2 Sur 6 Sur 0 1009.2 -0.5 72
2018-11-13 17:00:00 15.7 3 Sur 8 Sudoeste 0 1009.3 -0.7 64
2018-11-13 16:00:00 16 6 Sudoeste 9 Sudoeste 0 1009.3 -1.6 65
2018-11-13 15:00:00 15.5 6 Sudoeste 9 Sudoeste 0 1009.7 -1.7 57
2018-11-13 14:00:00 15.5 4 Sudoeste 6 Sudoeste 0 1010 -1.4 57
2018-11-13 13:00:00 14 3 Sur 8 Sudoeste 0 1010.9 -0.4 71
2018-11-13 12:00:00 11.8 3 Sudoeste 5 Sur 0 1011.4 0.5 77
2018-11-13 11:00:00 9.1 2 Sudoeste 4 Sur 0 1011.4 1 84
2018-11-13 10:00:00 6 3 Sudoeste 13 Este 0 1011.3 1.1 93
2018-11-13 09:00:00 5.8 3 Sudeste 15 Este 0 1010.9 0.9 90
2018-11-13 08:00:00 5.3 4 Este 13 Este 0 1010.4 0.4 94
2018-11-13 07:00:00 6.1 10 Nordeste 16 Nordeste 0 1010.2 0.3 91
2018-11-13 06:00:00 6.4 3 Norte 23 Nordeste 0 1010 0.4 91
2018-11-13 05:00:00 6.8 9 Nordeste 17 Nordeste 0 1010 0.8 91
2018-11-13 04:00:00 6.4 5 Norte 18 Nordeste 0 1009.9 0.8 91
2018-11-13 03:00:00 7.3 13 Este 18 Nordeste 0 1009.6 0.8 91
2018-11-13 02:00:00 7.4 7 Nordeste 17 Nordeste 0 1009.2 0.4 91
2018-11-13 01:00:00 7.6 7 Este 16 Este 0 1009.1 0.7 92
2018-11-13 00:00:00 8.1 10 Nordeste 18 Nordeste 0 1008.8 1 91
2018-11-12 23:00:00 8.6 10 Nordeste 18 Nordeste 0 1008.8 1.8 90
2018-11-12 22:00:00 9.1 11 Este 18 Este 0 1008.4 2.4 91
2018-11-12 21:00:00 9.6 13 Este 16 Este 0 1007.8 2.7 89
2018-11-12 20:00:00 10.5 9 Este 11 Este 0 1007 2.4 89
2018-11-12 19:00:00 11.5 0 Calma 6 Sudoeste 0 1006 2.2 85
2018-11-12 18:00:00 13.7 3 Sur 13 Oeste 0 1005.1 1.5 74
2018-11-12 17:00:00 15 6 Sudoeste 17 Sudoeste 0 1004.6 1.3 67
2018-11-12 16:00:00 15 9 Sudoeste 14 Sudoeste 0 1003.8 0.6 65
2018-11-12 15:00:00 14.3 10 Sudoeste 17 Sudoeste 0 1003.6 0.4 67
2018-11-12 14:00:00 14.9 8 Sudoeste 14 Sudoeste 0 1003.3 0.4 68
2018-11-12 13:00:00 14.2 5 Sudoeste 9 Sudoeste 0 1003.2 0.9 74
2018-11-12 12:00:00 13.7 4 Sur 9 Nordeste 0 1003.2 2.4 84
2018-11-12 11:00:00 10.7 3 Norte 8 Norte 0 1002.9 3.3 91
2018-11-12 10:00:00 8.1 4 Sudoeste 6 Sudoeste 0 1002.3 2.7 98
2018-11-12 09:00:00 7.4 2 Norte 15 Nordeste 0 1000.8 1.2 95
2018-11-12 08:00:00 7.8 10 Este 19 Nordeste 0 999.6 0.6 95
2018-11-12 07:00:00 8 12 Nordeste 17 Nordeste 0 999.6 1.1 96
2018-11-12 06:00:00 8.1 8 Este 11 Este 0 999.6 2 98
2018-11-12 05:00:00 8.5 3 Sur 12 Este 0 999 2.3 97
2018-11-12 04:00:00 8.9 2 Este 10 Nordeste 0 998.5 2.1 98
2018-11-12 03:00:00 9.1 5 Este 9 Nordeste 0 997.6 1.4 98
2018-11-12 02:00:00 9 3 Este 6 Nordeste 0 996.7 0.8 97
2018-11-12 01:00:00 9.6 0 Calma 7 Este 0 996.4 0.7 97
2018-11-12 00:00:00 9.8 2 Este 7 Nordeste 0 996.2 0.8 97
2018-11-11 23:00:00 9.7 3 Nordeste 12 Este 0 995.9 0.7 96
2018-11-11 22:00:00 10.1 8 Este 11 Este 0.2 995.7 1.2 95
2018-11-11 21:00:00 10.8 3 Nordeste 5 Sudeste 0.2 995.4 1.2 97
2018-11-11 20:00:00 10.8 0 Calma 9 Noroeste 0 995.2 1.3 96
2018-11-11 19:00:00 11.3 6 Este 17 Sudoeste 1.6 994.5 0.9 95
2018-11-11 18:00:00 11.7 7 Sudoeste 20 Sudoeste 0.2 994.2 0.2 91
2018-11-11 17:00:00 13 4 Sur 13 Sur 0 993.9 0 88
2018-11-11 16:00:00 13.2 5 Sur 14 Sudeste 0 993.6 -1.6 85
2018-11-11 15:00:00 13.1 8 Sur 13 Sudeste 0 994 -1.1 84
2018-11-11 14:00:00 13.1 8 Sur 17 Sudeste 0 993.9 -1 83
2018-11-11 13:00:00 13.3 8 Sur 13 Sur 0 995.2 0.5 87
2018-11-11 12:00:00 13.3 4 Sudeste 11 Sur 0 995.1 0.6 91
2018-11-11 11:00:00 13.3 4 Sur 15 Sudoeste 0 994.9 1.5 90
2018-11-11 10:00:00 13.2 4 Sur 27 Sudoeste 0 994.7 1.9 91
2018-11-11 09:00:00 13.6 17 Sudoeste 40 Sudoeste 0 994.5 2.3 92
2018-11-11 08:00:00 14.3 18 Sudoeste 41 Sudoeste 0 993.4 1.8 91
2018-11-11 07:00:00 14.7 21 Sudoeste 45 Sur 0.2 992.8 1.3 89
2018-11-11 06:00:00 14.2 22 Sur 64 Sur 0.6 992.2 0.1 94
2018-11-11 05:00:00 14.9 35 Sur 73 Sudoeste 0.2 991.6 -1.3 89
2018-11-11 04:00:00 14.3 24 Sur 43 Sur 1.6 991.5 -2.3 94
2018-11-11 03:00:00 14.2 23 Sur 45 Sur 2.8 992.1 -2.2 94
2018-11-11 02:00:00 14.9 18 Sur 39 Sur 0.2 992.9 -1.7 86
2018-11-11 01:00:00 14.9 15 Sur 40 Sudoeste 0 993.8 -1.2 87
2018-11-11 00:00:00 14.8 20 Sur 45 Sur 0.2 994.3 -0.7 85
2018-11-10 23:00:00 14.8 18 Sur 45 Sur 0 994.6 -0.3 88
2018-11-10 22:00:00 15.3 20 Sur 43 Sudoeste 0 995 -0.1 83
2018-11-10 21:00:00 15.4 21 Sur 50 Sur 0 995 -0.1 83
2018-11-10 20:00:00 15.1 20 Sur 39 Sur 0 994.9 -0.1 84
2018-11-10 19:00:00 15.1 18 Sur 41 Sur 0 995.1 0.1 83
2018-11-10 18:00:00 14.7 17 Sur 43 Sur 0 995.1 0.2 82
2018-11-10 17:00:00 14.8 16 Sur 40 Sudoeste 0 995 0.2 81
2018-11-10 16:00:00 15.4 19 Sur 45 Sudoeste 0 995 0.3 78
2018-11-10 15:00:00 16.2 17 Sudoeste 50 Sudoeste 0 994.9 0.6 80
2018-11-10 14:00:00 15.7 21 Sudoeste 49 Sudoeste 0 994.8 1.6 82
2018-11-10 13:00:00 15.4 20 Sudoeste 54 Sudoeste 0 994.7 1.3 83
2018-11-10 12:00:00 15.2 23 Sudoeste 62 Sudoeste 3.8 994.3 0.2 90
2018-11-10 11:00:00 14.2 21 Sur 39 Sudoeste 4 993.2 -0.9 95
2018-11-10 10:00:00 14.2 15 Sur 30 Sur 0.2 993.4 -1.2 90
2018-11-10 09:00:00 13.5 10 Sur 22 Sur 0 994.1 -0.5 90
2018-11-10 08:00:00 13.3 11 Sur 23 Sur 0 994.1 0.4 85
2018-11-10 07:00:00 13.2 10 Sur 33 Sudoeste 0 994.6 1.3 90
2018-11-10 06:00:00 13.8 18 Sudoeste 50 Sudoeste 0 994.6 1.1 93
2018-11-10 05:00:00 14.6 24 Sudoeste 50 Sudoeste 0 993.7 -0.2 92
2018-11-10 04:00:00 14.8 22 Sur 47 Sudoeste 1.4 993.3 -1 97
2018-11-10 03:00:00 13.8 15 Sur 45 Sudoeste 1.4 993.5 -0.3 96
2018-11-10 02:00:00 15 21 Sur 55 Sudoeste 0.2 993.9 0.1 94
2018-11-10 01:00:00 14.9 28 Sudoeste 58 Sudoeste 3 994.3 -0.2 97
2018-11-10 00:00:00 15.4 30 Sur 71 Sur 1.4 993.8 -1.1 96